sensor_id;sensor_type;location;lat;lon;timestamp;P1;durP1;ratioP1;P2;durP2;ratioP2
28323;SDS011;15583;54.078;12.106;2023-02-19T00:01:00;6.55;;;2.75;;
28323;SDS011;15583;54.078;12.106;2023-02-19T00:03:28;6.63;;;2.35;;
28323;SDS011;15583;54.078;12.106;2023-02-19T00:05:54;8.73;;;2.47;;
28323;SDS011;15583;54.078;12.106;2023-02-19T00:08:20;11.73;;;2.70;;
28323;SDS011;15583;54.078;12.106;2023-02-19T00:10:46;11.93;;;2.78;;
28323;SDS011;15583;54.078;12.106;2023-02-19T00:13:12;9.55;;;2.95;;
28323;SDS011;15583;54.078;12.106;2023-02-19T00:15:38;8.77;;;3.13;;
28323;SDS011;15583;54.078;12.106;2023-02-19T00:18:04;8.15;;;3.40;;
28323;SDS011;15583;54.078;12.106;2023-02-19T00:20:30;11.57;;;3.33;;
28323;SDS011;15583;54.078;12.106;2023-02-19T00:22:56;10.95;;;3.38;;
28323;SDS011;15583;54.078;12.106;2023-02-19T00:25:22;10.25;;;3.33;;
28323;SDS011;15583;54.078;12.106;2023-02-19T00:27:48;10.55;;;3.38;;
28323;SDS011;15583;54.078;12.106;2023-02-19T00:30:14;8.40;;;3.53;;
28323;SDS011;15583;54.078;12.106;2023-02-19T00:32:40;10.40;;;2.90;;
28323;SDS011;15583;54.078;12.106;2023-02-19T00:35:06;14.27;;;3.20;;
28323;SDS011;15583;54.078;12.106;2023-02-19T00:37:32;6.70;;;2.40;;
28323;SDS011;15583;54.078;12.106;2023-02-19T00:39:58;5.68;;;2.85;;
28323;SDS011;15583;54.078;12.106;2023-02-19T00:42:24;7.22;;;2.53;;
28323;SDS011;15583;54.078;12.106;2023-02-19T00:44:50;11.07;;;3.10;;
28323;SDS011;15583;54.078;12.106;2023-02-19T00:47:16;12.80;;;2.97;;
28323;SDS011;15583;54.078;12.106;2023-02-19T00:49:42;6.72;;;2.90;;
28323;SDS011;15583;54.078;12.106;2023-02-19T00:52:07;9.20;;;2.65;;
28323;SDS011;15583;54.078;12.106;2023-02-19T00:54:33;6.28;;;2.60;;
28323;SDS011;15583;54.078;12.106;2023-02-19T00:56:59;10.98;;;3.10;;
28323;SDS011;15583;54.078;12.106;2023-02-19T00:59:25;10.63;;;2.97;;
28323;SDS011;15583;54.078;12.106;2023-02-19T01:01:51;11.55;;;2.67;;
28323;SDS011;15583;54.078;12.106;2023-02-19T01:04:17;7.05;;;2.60;;
28323;SDS011;15583;54.078;12.106;2023-02-19T01:06:43;10.45;;;2.72;;
28323;SDS011;15583;54.078;12.106;2023-02-19T01:09:09;9.32;;;2.30;;
28323;SDS011;15583;54.078;12.106;2023-02-19T01:11:35;9.18;;;2.10;;
28323;SDS011;15583;54.078;12.106;2023-02-19T01:14:01;10.18;;;2.72;;
28323;SDS011;15583;54.078;12.106;2023-02-19T01:16:28;9.20;;;2.42;;
28323;SDS011;15583;54.078;12.106;2023-02-19T01:18:55;13.02;;;2.42;;
28323;SDS011;15583;54.078;12.106;2023-02-19T01:21:22;7.43;;;2.67;;
28323;SDS011;15583;54.078;12.106;2023-02-19T01:23:49;13.52;;;2.38;;
28323;SDS011;15583;54.078;12.106;2023-02-19T01:26:20;13.32;;;3.00;;
28323;SDS011;15583;54.078;12.106;2023-02-19T01:28:46;10.43;;;2.67;;
28323;SDS011;15583;54.078;12.106;2023-02-19T01:31:13;5.25;;;2.33;;
28323;SDS011;15583;54.078;12.106;2023-02-19T01:33:42;8.48;;;2.63;;
28323;SDS011;15583;54.078;12.106;2023-02-19T01:36:09;6.45;;;3.03;;
28323;SDS011;15583;54.078;12.106;2023-02-19T01:38:35;8.77;;;2.63;;
28323;SDS011;15583;54.078;12.106;2023-02-19T01:41:02;9.25;;;2.70;;
28323;SDS011;15583;54.078;12.106;2023-02-19T01:43:30;11.40;;;2.80;;
28323;SDS011;15583;54.078;12.106;2023-02-19T01:45:57;10.60;;;2.88;;
28323;SDS011;15583;54.078;12.106;2023-02-19T01:48:24;10.60;;;2.60;;
28323;SDS011;15583;54.078;12.106;2023-02-19T01:51:13;10.48;;;2.75;;
28323;SDS011;15583;54.078;12.106;2023-02-19T01:53:38;8.55;;;2.67;;
28323;SDS011;15583;54.078;12.106;2023-02-19T01:56:06;9.57;;;2.58;;
28323;SDS011;15583;54.078;12.106;2023-02-19T01:58:33;13.73;;;3.20;;
28323;SDS011;15583;54.078;12.106;2023-02-19T02:01:00;8.77;;;2.88;;
28323;SDS011;15583;54.078;12.106;2023-02-19T02:03:26;9.32;;;2.92;;
28323;SDS011;15583;54.078;12.106;2023-02-19T02:05:56;7.03;;;2.80;;
28323;SDS011;15583;54.078;12.106;2023-02-19T02:08:25;9.77;;;2.60;;
28323;SDS011;15583;54.078;12.106;2023-02-19T02:11:10;10.95;;;2.50;;
28323;SDS011;15583;54.078;12.106;2023-02-19T02:13:36;9.10;;;2.83;;
28323;SDS011;15583;54.078;12.106;2023-02-19T02:16:05;11.55;;;3.25;;
28323;SDS011;15583;54.078;12.106;2023-02-19T02:28:55;8.40;;;1.65;;
28323;SDS011;15583;54.078;12.106;2023-02-19T02:31:37;7.80;;;2.60;;
28323;SDS011;15583;54.078;12.106;2023-02-19T02:34:14;6.60;;;2.03;;
28323;SDS011;15583;54.078;12.106;2023-02-19T02:36:42;11.80;;;1.90;;
28323;SDS011;15583;54.078;12.106;2023-02-19T02:39:11;8.30;;;2.38;;
28323;SDS011;15583;54.078;12.106;2023-02-19T02:41:44;7.63;;;1.80;;
28323;SDS011;15583;54.078;12.106;2023-02-19T02:44:10;6.68;;;1.90;;
28323;SDS011;15583;54.078;12.106;2023-02-19T02:46:37;9.70;;;2.05;;
28323;SDS011;15583;54.078;12.106;2023-02-19T02:49:05;5.80;;;1.70;;
28323;SDS011;15583;54.078;12.106;2023-02-19T02:51:35;10.93;;;2.30;;
28323;SDS011;15583;54.078;12.106;2023-02-19T02:56:50;9.38;;;2.20;;
28323;SDS011;15583;54.078;12.106;2023-02-19T02:59:17;3.97;;;1.60;;
28323;SDS011;15583;54.078;12.106;2023-02-19T03:01:45;8.38;;;1.85;;
28323;SDS011;15583;54.078;12.106;2023-02-19T03:04:37;6.35;;;1.88;;
28323;SDS011;15583;54.078;12.106;2023-02-19T03:07:24;10.52;;;1.80;;
28323;SDS011;15583;54.078;12.106;2023-02-19T03:09:51;7.32;;;2.20;;
28323;SDS011;15583;54.078;12.106;2023-02-19T03:12:17;11.52;;;2.00;;
28323;SDS011;15583;54.078;12.106;2023-02-19T03:15:03;8.27;;;1.80;;
28323;SDS011;15583;54.078;12.106;2023-02-19T03:17:54;11.95;;;1.77;;
28323;SDS011;15583;54.078;12.106;2023-02-19T03:20:43;8.55;;;1.40;;
28323;SDS011;15583;54.078;12.106;2023-02-19T03:23:11;6.50;;;2.05;;
28323;SDS011;15583;54.078;12.106;2023-02-19T03:25:39;7.78;;;1.50;;
28323;SDS011;15583;54.078;12.106;2023-02-19T03:28:25;7.70;;;1.75;;
28323;SDS011;15583;54.078;12.106;2023-02-19T03:31:12;7.03;;;1.65;;
28323;SDS011;15583;54.078;12.106;2023-02-19T03:33:40;14.05;;;2.53;;
28323;SDS011;15583;54.078;12.106;2023-02-19T03:36:08;7.13;;;1.55;;
28323;SDS011;15583;54.078;12.106;2023-02-19T03:38:38;4.85;;;1.58;;
28323;SDS011;15583;54.078;12.106;2023-02-19T03:41:22;6.57;;;1.70;;
28323;SDS011;15583;54.078;12.106;2023-02-19T03:43:56;9.70;;;1.83;;
28323;SDS011;15583;54.078;12.106;2023-02-19T03:47:00;9.10;;;2.35;;
28323;SDS011;15583;54.078;12.106;2023-02-19T03:49:22;5.68;;;1.85;;
28323;SDS011;15583;54.078;12.106;2023-02-19T03:51:53;3.97;;;1.70;;
28323;SDS011;15583;54.078;12.106;2023-02-19T03:54:41;8.80;;;1.60;;
28323;SDS011;15583;54.078;12.106;2023-02-19T03:57:20;6.50;;;2.10;;
28323;SDS011;15583;54.078;12.106;2023-02-19T03:59:50;6.65;;;1.67;;
28323;SDS011;15583;54.078;12.106;2023-02-19T04:02:23;7.47;;;1.45;;
28323;SDS011;15583;54.078;12.106;2023-02-19T04:04:58;7.63;;;1.80;;
28323;SDS011;15583;54.078;12.106;2023-02-19T04:07:25;5.90;;;1.60;;
28323;SDS011;15583;54.078;12.106;2023-02-19T04:09:51;2.83;;;1.08;;
28323;SDS011;15583;54.078;12.106;2023-02-19T04:12:18;7.13;;;1.60;;
28323;SDS011;15583;54.078;12.106;2023-02-19T04:14:52;7.32;;;1.42;;
28323;SDS011;15583;54.078;12.106;2023-02-19T04:17:29;5.55;;;1.27;;
28323;SDS011;15583;54.078;12.106;2023-02-19T04:19:56;7.68;;;1.48;;
28323;SDS011;15583;54.078;12.106;2023-02-19T04:22:23;9.95;;;1.60;;
28323;SDS011;15583;54.078;12.106;2023-02-19T04:24:51;7.07;;;1.60;;
28323;SDS011;15583;54.078;12.106;2023-02-19T04:27:17;10.35;;;1.90;;
28323;SDS011;15583;54.078;12.106;2023-02-19T04:29:43;6.85;;;1.98;;
28323;SDS011;15583;54.078;12.106;2023-02-19T04:32:10;9.75;;;1.33;;
28323;SDS011;15583;54.078;12.106;2023-02-19T04:34:36;9.45;;;1.70;;
28323;SDS011;15583;54.078;12.106;2023-02-19T04:37:02;4.20;;;1.30;;
28323;SDS011;15583;54.078;12.106;2023-02-19T04:39:28;7.93;;;1.60;;
28323;SDS011;15583;54.078;12.106;2023-02-19T04:41:54;15.18;;;1.42;;
28323;SDS011;15583;54.078;12.106;2023-02-19T04:44:20;6.18;;;1.40;;
28323;SDS011;15583;54.078;12.106;2023-02-19T04:46:46;6.32;;;1.63;;
28323;SDS011;15583;54.078;12.106;2023-02-19T04:49:12;8.63;;;1.42;;
28323;SDS011;15583;54.078;12.106;2023-02-19T04:51:38;8.23;;;1.60;;
28323;SDS011;15583;54.078;12.106;2023-02-19T04:54:04;6.63;;;1.17;;
28323;SDS011;15583;54.078;12.106;2023-02-19T04:56:30;11.32;;;1.58;;
28323;SDS011;15583;54.078;12.106;2023-02-19T04:58:56;9.35;;;1.55;;
28323;SDS011;15583;54.078;12.106;2023-02-19T05:01:23;5.70;;;1.70;;
28323;SDS011;15583;54.078;12.106;2023-02-19T05:03:49;7.75;;;2.75;;
28323;SDS011;15583;54.078;12.106;2023-02-19T05:06:15;11.05;;;1.83;;
28323;SDS011;15583;54.078;12.106;2023-02-19T05:08:41;8.07;;;1.38;;
28323;SDS011;15583;54.078;12.106;2023-02-19T05:11:08;7.45;;;1.50;;
28323;SDS011;15583;54.078;12.106;2023-02-19T05:13:34;4.03;;;1.27;;
28323;SDS011;15583;54.078;12.106;2023-02-19T05:16:04;12.20;;;1.60;;
28323;SDS011;15583;54.078;12.106;2023-02-19T05:18:31;8.82;;;1.85;;
28323;SDS011;15583;54.078;12.106;2023-02-19T05:20:58;6.20;;;1.02;;
28323;SDS011;15583;54.078;12.106;2023-02-19T05:23:24;8.85;;;1.63;;
28323;SDS011;15583;54.078;12.106;2023-02-19T05:25:50;6.40;;;1.52;;
28323;SDS011;15583;54.078;12.106;2023-02-19T05:28:16;6.47;;;1.10;;
28323;SDS011;15583;54.078;12.106;2023-02-19T05:30:43;8.60;;;1.60;;
28323;SDS011;15583;54.078;12.106;2023-02-19T05:33:09;9.77;;;1.20;;
28323;SDS011;15583;54.078;12.106;2023-02-19T05:35:42;7.20;;;1.75;;
28323;SDS011;15583;54.078;12.106;2023-02-19T05:38:09;11.45;;;1.38;;
28323;SDS011;15583;54.078;12.106;2023-02-19T05:40:35;7.82;;;1.40;;
28323;SDS011;15583;54.078;12.106;2023-02-19T05:43:01;7.60;;;1.75;;
28323;SDS011;15583;54.078;12.106;2023-02-19T05:45:27;3.65;;;1.08;;
28323;SDS011;15583;54.078;12.106;2023-02-19T05:47:53;9.63;;;1.40;;
28323;SDS011;15583;54.078;12.106;2023-02-19T05:50:18;7.13;;;1.65;;
28323;SDS011;15583;54.078;12.106;2023-02-19T05:52:44;9.95;;;1.15;;
28323;SDS011;15583;54.078;12.106;2023-02-19T05:55:10;5.38;;;1.30;;
28323;SDS011;15583;54.078;12.106;2023-02-19T05:57:44;3.30;;;1.20;;
28323;SDS011;15583;54.078;12.106;2023-02-19T06:00:14;8.75;;;1.35;;
28323;SDS011;15583;54.078;12.106;2023-02-19T06:02:41;7.93;;;1.75;;
28323;SDS011;15583;54.078;12.106;2023-02-19T06:05:07;6.63;;;1.35;;
28323;SDS011;15583;54.078;12.106;2023-02-19T06:07:34;5.85;;;1.10;;
28323;SDS011;15583;54.078;12.106;2023-02-19T06:10:00;10.98;;;1.75;;
28323;SDS011;15583;54.078;12.106;2023-02-19T06:12:26;6.78;;;1.10;;
28323;SDS011;15583;54.078;12.106;2023-02-19T06:14:52;7.47;;;1.40;;
28323;SDS011;15583;54.078;12.106;2023-02-19T06:17:18;5.95;;;1.05;;
28323;SDS011;15583;54.078;12.106;2023-02-19T06:19:44;6.85;;;1.13;;
28323;SDS011;15583;54.078;12.106;2023-02-19T06:22:10;7.80;;;2.17;;
28323;SDS011;15583;54.078;12.106;2023-02-19T06:24:36;9.80;;;1.85;;
28323;SDS011;15583;54.078;12.106;2023-02-19T06:27:05;11.45;;;1.40;;
28323;SDS011;15583;54.078;12.106;2023-02-19T06:29:31;10.38;;;1.38;;
28323;SDS011;15583;54.078;12.106;2023-02-19T06:31:58;9.30;;;1.20;;
28323;SDS011;15583;54.078;12.106;2023-02-19T06:34:24;5.20;;;1.20;;
28323;SDS011;15583;54.078;12.106;2023-02-19T06:36:50;9.57;;;1.40;;
28323;SDS011;15583;54.078;12.106;2023-02-19T06:39:16;7.60;;;1.13;;
28323;SDS011;15583;54.078;12.106;2023-02-19T06:41:42;7.22;;;1.55;;
28323;SDS011;15583;54.078;12.106;2023-02-19T06:44:08;8.43;;;1.52;;
28323;SDS011;15583;54.078;12.106;2023-02-19T06:46:34;6.07;;;1.25;;
28323;SDS011;15583;54.078;12.106;2023-02-19T06:49:00;5.55;;;1.40;;
28323;SDS011;15583;54.078;12.106;2023-02-19T06:51:28;8.20;;;1.35;;
28323;SDS011;15583;54.078;12.106;2023-02-19T06:53:54;5.85;;;1.30;;
28323;SDS011;15583;54.078;12.106;2023-02-19T06:56:22;8.07;;;1.10;;
28323;SDS011;15583;54.078;12.106;2023-02-19T06:58:49;5.15;;;1.30;;
28323;SDS011;15583;54.078;12.106;2023-02-19T07:01:15;7.25;;;1.48;;
28323;SDS011;15583;54.078;12.106;2023-02-19T07:03:41;4.85;;;1.23;;
28323;SDS011;15583;54.078;12.106;2023-02-19T07:06:06;7.65;;;1.23;;
28323;SDS011;15583;54.078;12.106;2023-02-19T07:08:33;7.50;;;1.45;;
28323;SDS011;15583;54.078;12.106;2023-02-19T07:10:58;5.72;;;1.58;;
28323;SDS011;15583;54.078;12.106;2023-02-19T07:13:25;6.28;;;1.30;;
28323;SDS011;15583;54.078;12.106;2023-02-19T07:15:51;4.00;;;1.02;;
28323;SDS011;15583;54.078;12.106;2023-02-19T07:18:22;2.60;;;1.00;;
28323;SDS011;15583;54.078;12.106;2023-02-19T07:20:48;7.18;;;1.27;;
28323;SDS011;15583;54.078;12.106;2023-02-19T07:23:14;6.38;;;1.33;;
28323;SDS011;15583;54.078;12.106;2023-02-19T07:25:40;5.03;;;1.08;;
28323;SDS011;15583;54.078;12.106;2023-02-19T07:28:06;9.50;;;1.80;;
28323;SDS011;15583;54.078;12.106;2023-02-19T07:30:32;4.10;;;0.98;;
28323;SDS011;15583;54.078;12.106;2023-02-19T07:32:58;9.52;;;1.45;;
28323;SDS011;15583;54.078;12.106;2023-02-19T07:35:24;4.75;;;0.98;;
28323;SDS011;15583;54.078;12.106;2023-02-19T07:37:50;6.30;;;1.33;;
28323;SDS011;15583;54.078;12.106;2023-02-19T07:40:16;7.38;;;1.45;;
28323;SDS011;15583;54.078;12.106;2023-02-19T07:42:41;2.78;;;1.00;;
28323;SDS011;15583;54.078;12.106;2023-02-19T07:45:07;8.80;;;1.27;;
28323;SDS011;15583;54.078;12.106;2023-02-19T07:47:33;6.75;;;1.27;;
28323;SDS011;15583;54.078;12.106;2023-02-19T07:49:59;5.30;;;1.02;;
28323;SDS011;15583;54.078;12.106;2023-02-19T07:52:25;5.70;;;1.25;;
28323;SDS011;15583;54.078;12.106;2023-02-19T07:54:52;5.30;;;0.98;;
28323;SDS011;15583;54.078;12.106;2023-02-19T07:57:18;4.22;;;1.17;;
28323;SDS011;15583;54.078;12.106;2023-02-19T07:59:44;5.60;;;1.25;;
28323;SDS011;15583;54.078;12.106;2023-02-19T08:02:13;4.25;;;1.23;;
28323;SDS011;15583;54.078;12.106;2023-02-19T08:04:59;6.97;;;1.75;;
28323;SDS011;15583;54.078;12.106;2023-02-19T08:07:29;6.88;;;1.45;;
28323;SDS011;15583;54.078;12.106;2023-02-19T08:09:56;6.38;;;1.15;;
28323;SDS011;15583;54.078;12.106;2023-02-19T08:12:40;8.30;;;1.38;;
28323;SDS011;15583;54.078;12.106;2023-02-19T08:15:25;4.95;;;1.00;;
28323;SDS011;15583;54.078;12.106;2023-02-19T08:17:51;8.38;;;1.40;;
28323;SDS011;15583;54.078;12.106;2023-02-19T08:20:17;6.20;;;1.10;;
28323;SDS011;15583;54.078;12.106;2023-02-19T08:22:43;2.90;;;0.98;;
28323;SDS011;15583;54.078;12.106;2023-02-19T08:25:09;6.78;;;1.00;;
28323;SDS011;15583;54.078;12.106;2023-02-19T08:27:35;8.38;;;1.10;;
28323;SDS011;15583;54.078;12.106;2023-02-19T08:30:01;7.22;;;1.13;;
28323;SDS011;15583;54.078;12.106;2023-02-19T08:32:27;4.90;;;0.90;;
28323;SDS011;15583;54.078;12.106;2023-02-19T08:34:52;6.88;;;1.45;;
28323;SDS011;15583;54.078;12.106;2023-02-19T08:37:18;3.95;;;1.10;;
28323;SDS011;15583;54.078;12.106;2023-02-19T08:39:44;1.98;;;0.90;;
28323;SDS011;15583;54.078;12.106;2023-02-19T08:42:10;7.63;;;1.45;;
28323;SDS011;15583;54.078;12.106;2023-02-19T08:44:36;2.45;;;0.98;;
28323;SDS011;15583;54.078;12.106;2023-02-19T08:47:02;7.45;;;1.25;;
28323;SDS011;15583;54.078;12.106;2023-02-19T08:49:29;5.85;;;1.20;;
28323;SDS011;15583;54.078;12.106;2023-02-19T08:51:55;3.70;;;1.27;;
28323;SDS011;15583;54.078;12.106;2023-02-19T08:54:21;4.13;;;1.20;;
28323;SDS011;15583;54.078;12.106;2023-02-19T08:56:47;3.53;;;1.17;;
28323;SDS011;15583;54.078;12.106;2023-02-19T08:59:13;3.90;;;0.82;;
28323;SDS011;15583;54.078;12.106;2023-02-19T09:01:39;4.28;;;1.10;;
28323;SDS011;15583;54.078;12.106;2023-02-19T09:04:05;8.13;;;1.25;;
28323;SDS011;15583;54.078;12.106;2023-02-19T09:06:31;3.25;;;0.90;;
28323;SDS011;15583;54.078;12.106;2023-02-19T09:08:57;7.68;;;1.05;;
28323;SDS011;15583;54.078;12.106;2023-02-19T09:11:23;3.67;;;0.98;;
28323;SDS011;15583;54.078;12.106;2023-02-19T09:13:48;3.22;;;1.00;;
28323;SDS011;15583;54.078;12.106;2023-02-19T09:16:14;3.58;;;0.98;;
28323;SDS011;15583;54.078;12.106;2023-02-19T09:18:40;5.07;;;1.10;;
28323;SDS011;15583;54.078;12.106;2023-02-19T09:21:07;2.63;;;0.75;;
28323;SDS011;15583;54.078;12.106;2023-02-19T09:23:33;6.47;;;1.10;;
28323;SDS011;15583;54.078;12.106;2023-02-19T09:25:59;5.50;;;1.15;;
28323;SDS011;15583;54.078;12.106;2023-02-19T09:28:27;6.53;;;2.00;;
28323;SDS011;15583;54.078;12.106;2023-02-19T09:30:53;4.13;;;1.20;;
28323;SDS011;15583;54.078;12.106;2023-02-19T09:33:19;5.15;;;1.00;;
28323;SDS011;15583;54.078;12.106;2023-02-19T09:35:45;4.30;;;1.05;;
28323;SDS011;15583;54.078;12.106;2023-02-19T09:38:11;3.67;;;0.90;;
28323;SDS011;15583;54.078;12.106;2023-02-19T09:40:37;6.10;;;0.80;;
28323;SDS011;15583;54.078;12.106;2023-02-19T09:43:07;7.15;;;0.90;;
28323;SDS011;15583;54.078;12.106;2023-02-19T09:45:36;4.80;;;1.10;;
28323;SDS011;15583;54.078;12.106;2023-02-19T09:48:03;3.53;;;0.60;;
28323;SDS011;15583;54.078;12.106;2023-02-19T09:50:35;4.38;;;1.10;;
28323;SDS011;15583;54.078;12.106;2023-02-19T09:53:04;4.47;;;1.20;;
28323;SDS011;15583;54.078;12.106;2023-02-19T09:55:34;3.92;;;0.82;;
28323;SDS011;15583;54.078;12.106;2023-02-19T09:58:04;3.47;;;1.13;;
28323;SDS011;15583;54.078;12.106;2023-02-19T10:00:33;4.70;;;0.80;;
28323;SDS011;15583;54.078;12.106;2023-02-19T10:03:33;2.92;;;0.73;;
28323;SDS011;15583;54.078;12.106;2023-02-19T10:05:55;3.38;;;0.70;;
28323;SDS011;15583;54.078;12.106;2023-02-19T10:08:21;2.58;;;0.75;;
28323;SDS011;15583;54.078;12.106;2023-02-19T10:10:47;6.00;;;0.95;;
28323;SDS011;15583;54.078;12.106;2023-02-19T10:13:23;7.03;;;1.10;;
28323;SDS011;15583;54.078;12.106;2023-02-19T10:15:54;4.18;;;0.90;;
28323;SDS011;15583;54.078;12.106;2023-02-19T10:18:21;4.22;;;0.98;;
28323;SDS011;15583;54.078;12.106;2023-02-19T10:20:48;4.90;;;0.88;;
28323;SDS011;15583;54.078;12.106;2023-02-19T10:23:15;4.40;;;0.88;;
28323;SDS011;15583;54.078;12.106;2023-02-19T10:25:43;4.50;;;1.17;;
28323;SDS011;15583;54.078;12.106;2023-02-19T10:28:11;7.15;;;0.80;;
28323;SDS011;15583;54.078;12.106;2023-02-19T10:30:39;4.85;;;0.80;;
28323;SDS011;15583;54.078;12.106;2023-02-19T10:33:10;4.47;;;0.95;;
28323;SDS011;15583;54.078;12.106;2023-02-19T10:38:22;5.20;;;0.90;;
28323;SDS011;15583;54.078;12.106;2023-02-19T10:40:51;2.55;;;0.50;;
28323;SDS011;15583;54.078;12.106;2023-02-19T10:43:23;4.68;;;0.70;;
28323;SDS011;15583;54.078;12.106;2023-02-19T10:45:55;4.03;;;1.05;;
28323;SDS011;15583;54.078;12.106;2023-02-19T10:48:28;3.92;;;0.75;;
28323;SDS011;15583;54.078;12.106;2023-02-19T10:50:57;5.53;;;0.85;;
28323;SDS011;15583;54.078;12.106;2023-02-19T10:53:42;4.80;;;0.85;;
28323;SDS011;15583;54.078;12.106;2023-02-19T10:56:12;3.72;;;0.82;;
28323;SDS011;15583;54.078;12.106;2023-02-19T10:58:39;5.00;;;0.68;;
28323;SDS011;15583;54.078;12.106;2023-02-19T11:01:10;3.05;;;0.50;;
28323;SDS011;15583;54.078;12.106;2023-02-19T11:03:36;3.95;;;0.70;;
28323;SDS011;15583;54.078;12.106;2023-02-19T11:06:03;3.13;;;0.70;;
28323;SDS011;15583;54.078;12.106;2023-02-19T11:08:33;8.95;;;1.20;;
28323;SDS011;15583;54.078;12.106;2023-02-19T11:11:04;4.70;;;0.75;;
28323;SDS011;15583;54.078;12.106;2023-02-19T11:13:31;2.92;;;0.60;;
28323;SDS011;15583;54.078;12.106;2023-02-19T11:16:01;4.68;;;1.08;;
28323;SDS011;15583;54.078;12.106;2023-02-19T11:18:29;3.95;;;0.60;;
28323;SDS011;15583;54.078;12.106;2023-02-19T11:23:26;9.55;;;0.88;;
28323;SDS011;15583;54.078;12.106;2023-02-19T11:25:53;3.63;;;0.63;;
28323;SDS011;15583;54.078;12.106;2023-02-19T11:30:47;4.35;;;0.60;;
28323;SDS011;15583;54.078;12.106;2023-02-19T11:35:44;6.57;;;0.70;;
28323;SDS011;15583;54.078;12.106;2023-02-19T11:38:10;2.15;;;0.60;;
28323;SDS011;15583;54.078;12.106;2023-02-19T11:45:47;2.40;;;0.70;;
28323;SDS011;15583;54.078;12.106;2023-02-19T11:51:02;4.20;;;0.88;;
28323;SDS011;15583;54.078;12.106;2023-02-19T11:53:31;5.68;;;0.85;;
28323;SDS011;15583;54.078;12.106;2023-02-19T11:56:31;2.05;;;0.75;;
28323;SDS011;15583;54.078;12.106;2023-02-19T12:01:22;5.13;;;1.17;;
28323;SDS011;15583;54.078;12.106;2023-02-19T12:03:57;4.72;;;1.20;;
28323;SDS011;15583;54.078;12.106;2023-02-19T12:09:19;3.95;;;1.25;;
28323;SDS011;15583;54.078;12.106;2023-02-19T12:17:07;3.22;;;0.77;;
28323;SDS011;15583;54.078;12.106;2023-02-19T12:19:54;3.15;;;0.70;;
28323;SDS011;15583;54.078;12.106;2023-02-19T12:22:28;3.13;;;0.80;;
28323;SDS011;15583;54.078;12.106;2023-02-19T12:25:08;4.72;;;0.70;;
28323;SDS011;15583;54.078;12.106;2023-02-19T12:27:48;4.15;;;0.65;;
28323;SDS011;15583;54.078;12.106;2023-02-19T12:30:28;3.40;;;0.80;;
28323;SDS011;15583;54.078;12.106;2023-02-19T12:35:25;3.20;;;0.80;;
28323;SDS011;15583;54.078;12.106;2023-02-19T12:37:59;4.78;;;0.82;;
28323;SDS011;15583;54.078;12.106;2023-02-19T12:43:14;2.97;;;0.70;;
28323;SDS011;15583;54.078;12.106;2023-02-19T12:45:55;2.85;;;0.65;;
28323;SDS011;15583;54.078;12.106;2023-02-19T12:50:49;2.60;;;0.55;;
28323;SDS011;15583;54.078;12.106;2023-02-19T12:53:30;2.45;;;0.52;;
28323;SDS011;15583;54.078;12.106;2023-02-19T12:55:58;2.60;;;0.63;;
28323;SDS011;15583;54.078;12.106;2023-02-19T12:58:27;3.42;;;0.98;;
28323;SDS011;15583;54.078;12.106;2023-02-19T13:00:54;3.35;;;0.82;;
28323;SDS011;15583;54.078;12.106;2023-02-19T13:03:27;3.20;;;1.00;;
28323;SDS011;15583;54.078;12.106;2023-02-19T13:05:56;6.72;;;0.95;;
28323;SDS011;15583;54.078;12.106;2023-02-19T13:08:30;4.55;;;0.68;;
28323;SDS011;15583;54.078;12.106;2023-02-19T13:11:19;4.05;;;0.85;;
28323;SDS011;15583;54.078;12.106;2023-02-19T13:13:47;3.00;;;0.75;;
28323;SDS011;15583;54.078;12.106;2023-02-19T13:16:15;3.35;;;0.47;;
28323;SDS011;15583;54.078;12.106;2023-02-19T13:18:47;1.80;;;0.60;;
28323;SDS011;15583;54.078;12.106;2023-02-19T13:21:14;2.28;;;0.60;;
28323;SDS011;15583;54.078;12.106;2023-02-19T13:24:01;2.38;;;0.50;;
28323;SDS011;15583;54.078;12.106;2023-02-19T13:26:41;2.65;;;0.70;;
28323;SDS011;15583;54.078;12.106;2023-02-19T13:37:00;1.80;;;0.68;;
28323;SDS011;15583;54.078;12.106;2023-02-19T13:39:27;3.65;;;0.85;;
28323;SDS011;15583;54.078;12.106;2023-02-19T13:41:53;3.17;;;0.60;;
28323;SDS011;15583;54.078;12.106;2023-02-19T13:44:23;6.15;;;1.02;;
28323;SDS011;15583;54.078;12.106;2023-02-19T13:46:50;2.53;;;0.68;;
28323;SDS011;15583;54.078;12.106;2023-02-19T13:51:53;1.77;;;1.00;;
28323;SDS011;15583;54.078;12.106;2023-02-19T13:54:20;3.40;;;0.63;;
28323;SDS011;15583;54.078;12.106;2023-02-19T13:56:47;2.88;;;1.08;;
28323;SDS011;15583;54.078;12.106;2023-02-19T13:59:23;0.98;;;0.60;;
28323;SDS011;15583;54.078;12.106;2023-02-19T14:17:13;2.83;;;0.60;;
28323;SDS011;15583;54.078;12.106;2023-02-19T14:19:53;2.08;;;0.60;;
28323;SDS011;15583;54.078;12.106;2023-02-19T14:25:04;2.63;;;0.85;;
28323;SDS011;15583;54.078;12.106;2023-02-19T14:27:34;1.77;;;0.63;;
28323;SDS011;15583;54.078;12.106;2023-02-19T14:30:00;2.15;;;0.60;;
28323;SDS011;15583;54.078;12.106;2023-02-19T14:32:26;0.93;;;0.50;;
28323;SDS011;15583;54.078;12.106;2023-02-19T14:34:52;6.95;;;1.02;;
28323;SDS011;15583;54.078;12.106;2023-02-19T14:37:18;2.85;;;0.50;;
28323;SDS011;15583;54.078;12.106;2023-02-19T14:39:45;2.47;;;0.82;;
28323;SDS011;15583;54.078;12.106;2023-02-19T14:42:14;1.17;;;0.57;;
28323;SDS011;15583;54.078;12.106;2023-02-19T14:44:54;2.53;;;0.57;;
28323;SDS011;15583;54.078;12.106;2023-02-19T14:47:22;1.33;;;0.50;;
28323;SDS011;15583;54.078;12.106;2023-02-19T14:49:53;1.63;;;0.60;;
28323;SDS011;15583;54.078;12.106;2023-02-19T14:52:21;3.45;;;0.82;;
28323;SDS011;15583;54.078;12.106;2023-02-19T14:54:58;2.70;;;0.82;;
28323;SDS011;15583;54.078;12.106;2023-02-19T14:57:29;3.67;;;0.68;;
28323;SDS011;15583;54.078;12.106;2023-02-19T14:59:58;1.70;;;0.60;;
28323;SDS011;15583;54.078;12.106;2023-02-19T15:02:25;3.50;;;0.70;;
28323;SDS011;15583;54.078;12.106;2023-02-19T15:04:52;4.55;;;1.08;;
28323;SDS011;15583;54.078;12.106;2023-02-19T15:07:22;1.10;;;0.45;;
28323;SDS011;15583;54.078;12.106;2023-02-19T15:09:50;1.65;;;0.40;;
28323;SDS011;15583;54.078;12.106;2023-02-19T15:12:17;2.75;;;0.40;;
28323;SDS011;15583;54.078;12.106;2023-02-19T15:14:44;3.40;;;0.60;;
28323;SDS011;15583;54.078;12.106;2023-02-19T15:17:12;3.03;;;0.50;;
28323;SDS011;15583;54.078;12.106;2023-02-19T15:19:41;2.03;;;0.40;;
28323;SDS011;15583;54.078;12.106;2023-02-19T15:22:10;1.35;;;0.50;;
28323;SDS011;15583;54.078;12.106;2023-02-19T15:24:39;2.13;;;0.60;;
28323;SDS011;15583;54.078;12.106;2023-02-19T15:27:10;1.70;;;0.47;;
28323;SDS011;15583;54.078;12.106;2023-02-19T15:29:43;2.28;;;0.50;;
28323;SDS011;15583;54.078;12.106;2023-02-19T15:32:14;2.72;;;0.68;;
28323;SDS011;15583;54.078;12.106;2023-02-19T15:34:41;2.03;;;0.80;;
28323;SDS011;15583;54.078;12.106;2023-02-19T15:37:07;2.30;;;0.50;;
28323;SDS011;15583;54.078;12.106;2023-02-19T15:39:40;0.80;;;0.55;;
28323;SDS011;15583;54.078;12.106;2023-02-19T15:42:08;2.75;;;1.17;;
28323;SDS011;15583;54.078;12.106;2023-02-19T15:44:44;7.05;;;1.10;;
28323;SDS011;15583;54.078;12.106;2023-02-19T15:47:17;1.35;;;0.60;;
28323;SDS011;15583;54.078;12.106;2023-02-19T15:49:52;3.88;;;0.55;;
28323;SDS011;15583;54.078;12.106;2023-02-19T15:52:23;2.40;;;1.00;;
28323;SDS011;15583;54.078;12.106;2023-02-19T15:54:56;1.70;;;0.63;;
28323;SDS011;15583;54.078;12.106;2023-02-19T15:57:25;1.60;;;0.55;;
28323;SDS011;15583;54.078;12.106;2023-02-19T15:59:54;3.78;;;0.60;;
28323;SDS011;15583;54.078;12.106;2023-02-19T16:02:22;3.30;;;0.60;;